createdAt,value
2019-02-15T00:00:38.314Z,15.40
2019-02-15T00:03:11.144Z,13.22
2019-02-15T00:05:41.911Z,12.28
2019-02-15T00:08:12.679Z,11.60
2019-02-15T00:10:43.463Z,12.73
2019-02-15T00:13:16.234Z,12.80
2019-02-15T00:15:47.004Z,12.95
2019-02-15T00:18:25.358Z,12.53
2019-02-15T00:21:18.393Z,11.43
2019-02-15T00:23:49.176Z,11.55
2019-02-15T00:26:19.966Z,12.40
2019-02-15T00:28:52.797Z,12.33
2019-02-15T00:31:23.566Z,12.25
2019-02-15T00:33:54.330Z,12.77
2019-02-15T00:36:25.102Z,12.87
2019-02-15T00:39:00.268Z,12.40
2019-02-15T00:41:31.038Z,13.10
2019-02-15T00:44:01.805Z,11.73
2019-02-15T00:46:37.272Z,12.30
2019-02-15T00:49:09.539Z,12.85
2019-02-15T00:51:57.409Z,11.95
2019-02-15T00:54:30.071Z,12.43
2019-02-15T00:57:11.563Z,11.68
2019-02-15T00:59:46.760Z,12.13
2019-02-15T01:02:34.317Z,12.10
2019-02-15T01:05:09.558Z,10.90
2019-02-15T01:08:07.375Z,13.10
2019-02-15T01:30:52.798Z,12.33
2019-02-15T01:33:27.413Z,12.07
2019-02-15T01:36:09.151Z,11.88
2019-02-15T01:38:47.768Z,12.13
2019-02-15T01:41:21.820Z,10.93
2019-02-15T01:43:54.768Z,11.60
2019-02-15T01:46:27.705Z,12.93
2019-02-15T01:48:58.800Z,11.45
2019-02-15T01:51:29.772Z,11.93
2019-02-15T01:54:03.043Z,12.25
2019-02-15T01:56:33.932Z,11.18
2019-02-15T01:59:04.795Z,12.47
2019-02-15T02:02:05.620Z,11.80
2019-02-15T02:04:36.582Z,11.28
2019-02-15T02:07:07.458Z,12.03
2019-02-15T02:09:38.323Z,11.63
2019-02-15T02:12:09.345Z,11.57
2019-02-15T02:14:40.208Z,11.10
2019-02-15T02:17:11.210Z,12.10
2019-02-15T02:19:42.106Z,12.40
2019-02-15T02:22:12.986Z,13.03
2019-02-15T02:24:43.826Z,11.77
2019-02-15T02:27:14.686Z,11.90
2019-02-15T02:29:45.529Z,11.33
2019-02-15T02:32:16.981Z,11.80
2019-02-15T02:34:47.799Z,11.78
2019-02-15T02:37:18.682Z,11.50
2019-02-15T02:39:49.610Z,10.90
2019-02-15T02:42:20.486Z,13.67
2019-02-15T02:44:51.358Z,11.40
2019-02-15T02:47:22.227Z,11.80
2019-02-15T02:49:53.074Z,11.40
2019-02-15T02:52:24.280Z,10.57
2019-02-15T02:54:56.208Z,11.05
2019-02-15T02:57:29.423Z,11.88
2019-02-15T03:00:18.351Z,11.35
2019-02-15T03:02:49.339Z,10.63
2019-02-15T03:05:20.155Z,10.78
2019-02-15T03:07:51.115Z,11.23
2019-02-15T03:10:21.941Z,10.23
2019-02-15T03:12:52.889Z,11.03
2019-02-15T03:15:23.783Z,10.75
2019-02-15T03:17:54.644Z,11.10
2019-02-15T03:20:31.164Z,11.70
2019-02-15T03:22:58.205Z,11.73
2019-02-15T03:25:29.027Z,12.30
2019-02-15T03:28:01.379Z,12.27
2019-02-15T03:30:32.181Z,11.50
2019-02-15T03:33:03.066Z,12.13
2019-02-15T03:35:33.900Z,10.60
2019-02-15T03:38:06.671Z,11.23
2019-02-15T03:40:38.957Z,11.25
2019-02-15T03:43:09.794Z,12.98
2019-02-15T03:45:42.321Z,12.17
2019-02-15T03:48:13.268Z,11.25
2019-02-15T03:50:44.103Z,11.77
2019-02-15T03:53:14.945Z,10.93
2019-02-15T03:55:45.762Z,10.97
2019-02-15T03:58:16.739Z,12.57
2019-02-15T04:00:47.557Z,11.40
2019-02-15T04:03:18.390Z,10.53
2019-02-15T04:05:49.222Z,11.23
2019-02-15T04:08:20.037Z,11.63
2019-02-15T04:10:50.954Z,11.13
2019-02-15T04:16:55.701Z,10.85
2019-02-15T04:19:26.534Z,10.03
2019-02-15T04:21:58.695Z,11.90
2019-02-15T04:24:29.610Z,11.15
2019-02-15T04:30:46.173Z,10.53
2019-02-15T04:33:19.276Z,10.00
2019-02-15T04:35:50.125Z,10.15
2019-02-15T04:38:20.940Z,10.67
2019-02-15T04:40:51.835Z,10.33
2019-02-15T04:43:22.741Z,10.50
2019-02-15T04:45:54.882Z,11.20
2019-02-15T04:48:25.750Z,11.33
2019-02-15T04:50:56.590Z,11.27
2019-02-15T04:53:27.451Z,11.57
2019-02-15T04:55:58.257Z,10.67
2019-02-15T04:58:29.101Z,11.53
2019-02-15T05:01:00.009Z,12.60
2019-02-15T05:03:30.936Z,12.30
2019-02-15T05:06:01.814Z,10.93
2019-02-15T05:08:32.627Z,10.70
2019-02-15T05:11:05.000Z,11.37
2019-02-15T05:13:35.900Z,11.43
2019-02-15T05:16:06.773Z,10.90
2019-02-15T05:18:39.116Z,10.87
2019-02-15T05:21:10.071Z,10.43
2019-02-15T05:23:40.914Z,11.30
2019-02-15T05:29:45.675Z,11.15
2019-02-15T05:32:16.475Z,10.68
2019-02-15T05:34:47.965Z,10.00
2019-02-15T05:37:18.814Z,10.65
2019-02-15T05:39:49.757Z,11.17
2019-02-15T05:42:20.572Z,11.10
2019-02-15T05:44:51.436Z,11.80
2019-02-15T05:47:22.627Z,10.53
2019-02-15T05:49:53.518Z,11.22
2019-02-15T05:52:24.375Z,11.80
2019-02-15T05:54:55.321Z,11.40
2019-02-15T05:57:26.362Z,11.73
2019-02-15T05:59:57.307Z,10.53
2019-02-15T06:02:28.337Z,10.13
2019-02-15T06:04:59.158Z,10.03
2019-02-15T06:07:29.994Z,11.70
2019-02-15T06:13:34.691Z,10.55
2019-02-15T06:16:05.586Z,11.95
2019-02-15T06:18:36.447Z,10.40
2019-02-15T06:21:07.364Z,10.30
2019-02-15T06:23:38.230Z,11.40
2019-02-15T06:26:09.109Z,11.97
2019-02-15T06:28:41.064Z,11.33
2019-02-15T06:34:45.189Z,11.12
2019-02-15T06:37:16.014Z,12.07
2019-02-15T06:39:46.917Z,13.37
2019-02-15T06:42:21.004Z,12.17
2019-02-15T06:44:51.851Z,12.82
2019-02-15T06:47:22.762Z,13.33
2019-02-15T06:49:53.793Z,11.70
2019-02-15T06:52:26.290Z,11.03
2019-02-15T06:58:31.824Z,12.53
2019-02-15T07:01:16.885Z,13.35
2019-02-15T07:04:07.725Z,12.55
2019-02-15T07:07:00.343Z,12.45
2019-02-15T07:09:32.347Z,13.85
2019-02-15T07:12:03.754Z,13.48
2019-02-15T07:14:34.801Z,12.03
2019-02-15T07:17:06.001Z,12.40
2019-02-15T07:19:37.287Z,12.58
2019-02-15T07:22:13.587Z,13.80
2019-02-15T07:24:44.719Z,13.38
2019-02-15T07:27:18.627Z,12.50
2019-02-15T07:29:50.116Z,10.95
2019-02-15T07:32:25.489Z,13.83
2019-02-15T07:34:56.508Z,13.20
2019-02-15T07:37:30.533Z,13.38
2019-02-15T07:40:02.833Z,13.80
2019-02-15T07:42:35.870Z,14.55
2019-02-15T07:45:09.180Z,13.35
2019-02-15T07:47:42.571Z,13.18
2019-02-15T07:50:17.307Z,13.70
2019-02-15T07:52:50.525Z,12.73
2019-02-15T07:55:22.020Z,14.30
2019-02-15T07:57:54.070Z,13.13
2019-02-15T08:00:26.552Z,12.60
2019-02-15T08:05:43.213Z,13.58
2019-02-15T08:08:28.544Z,14.33
2019-02-15T08:14:14.979Z,12.82
2019-02-15T08:16:41.915Z,14.10
2019-02-15T08:19:12.782Z,14.40
2019-02-15T08:21:43.553Z,15.20
2019-02-15T08:24:14.325Z,15.50
2019-02-15T08:26:45.082Z,14.10
2019-02-15T08:29:15.904Z,13.73
2019-02-15T08:31:47.042Z,13.50
2019-02-15T08:34:17.819Z,13.50
2019-02-15T08:36:49.609Z,12.50
2019-02-15T08:39:20.370Z,13.03
2019-02-15T08:42:01.179Z,12.70
2019-02-15T08:44:23.813Z,13.80
2019-02-15T08:46:54.587Z,13.80
2019-02-15T08:49:28.420Z,13.43
2019-02-15T08:51:59.179Z,12.95
2019-02-15T08:54:29.957Z,13.43
2019-02-15T08:57:00.714Z,14.97
2019-02-15T08:59:31.483Z,14.10
2019-02-15T09:02:04.152Z,13.67
2019-02-15T09:04:35.289Z,14.60
2019-02-15T09:07:06.029Z,14.45
2019-02-15T09:09:37.365Z,14.70
2019-02-15T09:12:08.264Z,15.45
2019-02-15T09:14:46.907Z,13.80
2019-02-15T09:17:17.674Z,16.05
2019-02-15T09:19:50.361Z,15.03
2019-02-15T09:22:21.124Z,13.78
2019-02-15T09:24:51.916Z,14.70
2019-02-15T09:27:26.664Z,15.40
2019-02-15T09:29:57.446Z,14.05
2019-02-15T09:32:28.237Z,15.10
2019-02-15T09:34:59.039Z,15.63
2019-02-15T09:37:32.848Z,14.97
2019-02-15T09:40:06.029Z,17.40
2019-02-15T09:42:38.913Z,15.25
2019-02-15T09:45:10.686Z,14.90
2019-02-15T09:47:41.516Z,15.65
2019-02-15T09:50:12.521Z,15.57
2019-02-15T09:52:43.349Z,16.40
2019-02-15T09:55:14.120Z,14.50
2019-02-15T09:57:44.885Z,16.23
2019-02-15T10:00:17.673Z,15.57
2019-02-15T10:02:48.439Z,15.85
2019-02-15T10:05:21.261Z,15.90
2019-02-15T10:07:52.012Z,15.05
2019-02-15T10:10:22.796Z,15.87
2019-02-15T10:12:53.578Z,16.53
2019-02-15T10:15:33.465Z,16.30
2019-02-15T10:18:06.274Z,15.63
2019-02-15T10:20:43.034Z,18.90
2019-02-15T10:23:15.804Z,15.08
2019-02-15T10:25:46.575Z,15.75
2019-02-15T10:28:19.342Z,16.90
2019-02-15T10:30:53.329Z,14.85
2019-02-15T10:33:24.095Z,16.37
2019-02-15T10:35:54.874Z,16.50
2019-02-15T10:38:25.631Z,16.87
2019-02-15T10:40:59.399Z,16.03
2019-02-15T10:43:30.163Z,15.28
2019-02-15T10:46:00.939Z,18.57
2019-02-15T10:48:33.714Z,17.50
2019-02-15T10:51:04.488Z,18.23
2019-02-15T10:53:35.249Z,16.70
2019-02-15T10:56:06.025Z,17.23
2019-02-15T10:58:36.781Z,15.77
2019-02-15T11:01:07.543Z,15.83
2019-02-15T11:03:38.306Z,16.17
2019-02-15T11:06:09.071Z,16.53
2019-02-15T11:08:39.832Z,16.10
2019-02-15T11:11:10.600Z,15.97
2019-02-15T11:13:41.467Z,15.67
2019-02-15T11:16:12.233Z,17.43
2019-02-15T11:18:43.047Z,15.77
2019-02-15T11:21:13.805Z,15.30
2019-02-15T11:23:44.561Z,15.40
2019-02-15T11:26:15.333Z,15.53
2019-02-15T11:28:46.099Z,17.10
2019-02-15T11:31:17.173Z,15.80
2019-02-15T11:33:47.969Z,15.20
2019-02-15T11:36:18.723Z,15.37
2019-02-15T11:38:49.491Z,16.57
2019-02-15T11:41:20.275Z,14.57
2019-02-15T11:43:51.050Z,14.10
2019-02-15T11:46:21.862Z,14.50
2019-02-15T11:48:52.588Z,15.83
2019-02-15T11:51:23.345Z,15.50
2019-02-15T11:53:54.120Z,16.00
2019-02-15T11:56:24.876Z,17.27
2019-02-15T11:58:55.643Z,16.87
2019-02-15T12:01:26.410Z,15.10
2019-02-15T12:03:57.179Z,15.67
2019-02-15T12:06:27.946Z,16.00
2019-02-15T12:08:58.710Z,14.00
2019-02-15T12:11:29.476Z,15.10
2019-02-15T12:14:00.245Z,14.63
2019-02-15T12:16:30.997Z,14.97
2019-02-15T12:19:01.765Z,15.03
2019-02-15T12:21:32.528Z,14.67
2019-02-15T12:24:03.295Z,15.43
2019-02-15T12:26:34.047Z,15.37
2019-02-15T12:29:04.845Z,17.07
2019-02-15T12:31:35.591Z,16.33
2019-02-15T12:34:07.388Z,15.80
2019-02-15T12:36:38.333Z,15.53
2019-02-15T12:39:09.098Z,14.43
2019-02-15T12:41:39.866Z,15.30
2019-02-15T12:44:10.630Z,13.90
2019-02-15T12:46:41.394Z,15.13
2019-02-15T12:49:12.159Z,14.53
2019-02-15T12:51:42.916Z,15.80
2019-02-15T12:54:13.689Z,14.70
2019-02-15T12:56:44.444Z,13.70
2019-02-15T12:59:15.215Z,13.30
2019-02-15T13:01:46.195Z,13.77
2019-02-15T13:04:16.964Z,14.53
2019-02-15T13:06:47.728Z,13.87
2019-02-15T13:09:18.503Z,13.20
2019-02-15T13:11:49.261Z,13.20
2019-02-15T13:14:20.025Z,13.17
2019-02-15T13:16:51.000Z,12.43
2019-02-15T13:19:21.730Z,12.03
2019-02-15T13:21:52.486Z,13.50
2019-02-15T13:24:23.246Z,13.00
2019-02-15T13:26:54.008Z,12.93
2019-02-15T13:29:24.772Z,15.37
2019-02-15T13:31:55.843Z,11.87
2019-02-15T13:34:26.609Z,12.30
2019-02-15T13:36:57.366Z,11.63
2019-02-15T13:39:28.158Z,13.10
2019-02-15T13:41:58.931Z,12.60
2019-02-15T13:44:29.677Z,11.50
2019-02-15T13:47:00.449Z,10.87
2019-02-15T13:49:31.226Z,11.33
2019-02-15T13:52:01.972Z,11.33
2019-02-15T13:54:32.754Z,10.43
2019-02-15T13:57:03.514Z,13.10
2019-02-15T13:59:34.325Z,12.00
2019-02-15T14:02:05.089Z,12.07
2019-02-15T14:04:35.857Z,12.63
2019-02-15T14:07:17.237Z,11.03
2019-02-15T14:09:48.044Z,11.20
2019-02-15T14:12:18.819Z,13.03
2019-02-15T14:14:49.592Z,12.03
2019-02-15T14:17:20.354Z,12.70
2019-02-15T14:19:51.131Z,12.70
2019-02-15T14:22:21.975Z,12.53
2019-02-15T14:24:52.775Z,12.87
2019-02-15T14:27:23.528Z,12.00
2019-02-15T14:29:54.299Z,12.20
2019-02-15T14:32:25.055Z,14.10
2019-02-15T14:34:55.824Z,14.23
2019-02-15T14:37:26.588Z,14.07
2019-02-15T14:39:57.352Z,14.20
2019-02-15T14:42:28.105Z,13.23
2019-02-15T14:44:58.874Z,14.30
2019-02-15T14:47:29.655Z,14.07
2019-02-15T14:50:00.508Z,13.83
2019-02-15T14:52:31.300Z,13.70
2019-02-15T14:55:03.066Z,12.73
2019-02-15T14:57:33.826Z,13.50
2019-02-15T15:00:08.121Z,14.37
2019-02-15T15:02:38.866Z,14.70
2019-02-15T15:05:11.545Z,14.10
2019-02-15T15:07:42.298Z,15.53
2019-02-15T15:10:13.067Z,13.20
2019-02-15T15:12:43.814Z,13.70
2019-02-15T15:15:14.981Z,15.40
2019-02-15T15:17:45.741Z,15.90
2019-02-15T15:20:16.515Z,16.93
2019-02-15T15:22:47.264Z,14.30
2019-02-15T15:25:18.027Z,15.43
2019-02-15T15:27:48.794Z,15.10
2019-02-15T15:30:19.559Z,15.77
2019-02-15T15:32:50.318Z,16.30
2019-02-15T15:35:21.087Z,17.00
2019-02-15T15:37:51.855Z,16.30
2019-02-15T15:40:22.634Z,16.60
2019-02-15T15:42:53.455Z,16.33
2019-02-15T15:45:24.231Z,16.43
2019-02-15T15:47:55.001Z,14.63
2019-02-15T15:50:25.765Z,17.20
2019-02-15T15:52:56.526Z,16.50
2019-02-15T15:55:27.294Z,15.87
2019-02-15T15:57:58.065Z,14.10
2019-02-15T16:00:38.405Z,13.50
2019-02-15T16:03:01.499Z,15.60
2019-02-15T16:05:32.262Z,12.37
2019-02-15T16:08:03.012Z,14.10
2019-02-15T16:10:33.783Z,13.40
2019-02-15T16:13:04.853Z,13.00
2019-02-15T16:15:35.657Z,14.80
2019-02-15T16:18:06.384Z,14.83
2019-02-15T16:20:37.159Z,14.50
2019-02-15T16:23:07.917Z,15.57
2019-02-15T16:25:38.704Z,16.33
2019-02-15T16:28:09.472Z,14.37
2019-02-15T16:30:41.047Z,16.17
2019-02-15T16:33:11.802Z,15.90
2019-02-15T16:35:42.585Z,16.13
2019-02-15T16:38:13.338Z,16.27
2019-02-15T16:40:44.106Z,15.20
2019-02-15T16:43:14.864Z,16.27
2019-02-15T16:45:45.636Z,15.23
2019-02-15T16:48:16.415Z,16.20
2019-02-15T16:50:47.188Z,18.00
2019-02-15T16:53:17.947Z,17.77
2019-02-15T16:55:48.712Z,16.20
2019-02-15T16:58:19.471Z,17.20
2019-02-15T17:00:50.249Z,17.00
2019-02-15T17:03:21.006Z,15.87
2019-02-15T17:05:51.782Z,17.57
2019-02-15T17:08:22.530Z,16.70
2019-02-15T17:10:53.404Z,17.10
2019-02-15T17:13:24.163Z,18.73
2019-02-15T17:15:54.935Z,19.20
2019-02-15T17:18:25.700Z,18.03
2019-02-15T17:20:56.457Z,18.07
2019-02-15T17:23:27.210Z,17.47
2019-02-15T17:25:57.979Z,17.33
2019-02-15T17:28:28.729Z,19.40
2019-02-15T17:30:59.500Z,20.20
2019-02-15T17:33:30.258Z,17.40
2019-02-15T17:36:01.047Z,19.13
2019-02-15T17:38:31.815Z,17.47
2019-02-15T17:41:02.585Z,17.40
2019-02-15T17:43:33.342Z,17.20
2019-02-15T17:46:04.109Z,18.80
2019-02-15T17:48:34.882Z,17.90
2019-02-15T17:51:05.658Z,18.40
2019-02-15T17:53:36.408Z,20.03
2019-02-15T17:56:07.194Z,21.53
2019-02-15T17:58:38.228Z,19.47
2019-02-15T18:01:09.006Z,19.57
2019-02-15T18:03:39.773Z,19.40
2019-02-15T18:06:10.542Z,20.87
2019-02-15T18:08:41.296Z,21.70
2019-02-15T18:11:12.058Z,20.53
2019-02-15T18:13:42.817Z,20.80
2019-02-15T18:16:13.587Z,21.93
2019-02-15T18:18:44.339Z,20.63
2019-02-15T18:21:15.107Z,19.50
2019-02-15T18:23:45.866Z,22.50
2019-02-15T18:26:16.624Z,21.73
2019-02-15T18:28:47.395Z,23.27
2019-02-15T18:31:18.151Z,23.57
2019-02-15T18:33:48.902Z,26.87
2019-02-15T18:36:19.709Z,25.37
2019-02-15T18:38:50.431Z,25.20
2019-02-15T18:41:21.206Z,24.40
2019-02-15T18:43:51.962Z,24.43
2019-02-15T18:46:22.731Z,27.40
2019-02-15T18:48:53.493Z,26.53
2019-02-15T18:51:24.266Z,27.17
2019-02-15T18:53:55.031Z,25.93
2019-02-15T18:56:25.799Z,24.47
2019-02-15T18:58:56.562Z,24.27
2019-02-15T19:01:27.335Z,24.17
2019-02-15T19:03:58.095Z,23.50
2019-02-15T19:06:28.854Z,22.50
2019-02-15T19:08:59.614Z,23.03
2019-02-15T19:11:30.379Z,22.10
2019-02-15T19:14:01.145Z,22.93
2019-02-15T19:16:31.905Z,20.10
2019-02-15T19:19:02.683Z,21.43
2019-02-15T19:21:33.433Z,21.27
2019-02-15T19:24:04.211Z,25.53
2019-02-15T19:26:34.975Z,21.37
2019-02-15T19:29:05.739Z,22.93
2019-02-15T19:31:36.494Z,23.50
2019-02-15T19:34:07.367Z,24.43
2019-02-15T19:36:38.126Z,21.47
2019-02-15T19:39:08.888Z,22.90
2019-02-15T19:41:39.656Z,23.47
2019-02-15T19:44:10.415Z,22.70
2019-02-15T19:46:41.170Z,22.23
2019-02-15T19:49:11.949Z,22.13
2019-02-15T19:51:42.708Z,20.97
2019-02-15T19:54:13.475Z,22.33
2019-02-15T19:56:44.230Z,20.33
2019-02-15T19:59:15.013Z,20.17
2019-02-15T20:01:45.762Z,22.10
2019-02-15T20:04:16.541Z,20.77
2019-02-15T20:06:47.387Z,20.90
2019-02-15T20:09:18.156Z,20.77
2019-02-15T20:11:49.269Z,19.70
2019-02-15T20:14:22.530Z,21.27
2019-02-15T20:16:55.324Z,20.23
2019-02-15T20:19:26.089Z,20.52
2019-02-15T20:21:56.851Z,20.67
2019-02-15T20:24:27.615Z,18.20
2019-02-15T20:26:58.379Z,19.00
2019-02-15T20:29:29.160Z,19.70
2019-02-15T20:31:59.924Z,20.10
2019-02-15T20:34:30.693Z,16.77
2019-02-15T20:37:01.451Z,19.07
2019-02-15T20:39:32.253Z,18.03
2019-02-15T20:42:03.146Z,19.23
2019-02-15T20:44:33.903Z,16.87
2019-02-15T20:47:04.666Z,18.53
2019-02-15T20:49:35.452Z,18.97
2019-02-15T20:52:06.202Z,18.63
2019-02-15T20:54:36.966Z,20.30
2019-02-15T20:57:07.724Z,17.93
2019-02-15T20:59:38.499Z,18.53
2019-02-15T21:02:09.267Z,18.37
2019-02-15T21:04:40.040Z,17.00
2019-02-15T21:07:10.809Z,16.73
2019-02-15T21:09:41.586Z,18.40
2019-02-15T21:12:12.356Z,16.70
2019-02-15T21:14:43.114Z,16.17
2019-02-15T21:17:13.865Z,16.80
2019-02-15T21:19:44.639Z,16.17
2019-02-15T21:22:15.399Z,18.27
2019-02-15T21:24:46.190Z,18.60
2019-02-15T21:27:16.947Z,18.03
2019-02-15T21:29:47.716Z,18.40
2019-02-15T21:32:18.494Z,18.10
2019-02-15T21:34:49.263Z,17.73
2019-02-15T21:37:20.027Z,17.37
2019-02-15T21:39:50.786Z,19.80
2019-02-15T21:42:21.543Z,17.20
2019-02-15T21:44:52.314Z,18.17
2019-02-15T21:47:23.078Z,18.67
2019-02-15T21:49:53.846Z,18.93
2019-02-15T21:52:24.602Z,16.60
2019-02-15T21:54:55.367Z,17.60
2019-02-15T21:57:26.457Z,18.70
2019-02-15T21:59:57.227Z,16.45
2019-02-15T22:02:27.982Z,17.13
2019-02-15T22:04:58.753Z,17.80
2019-02-15T22:07:29.506Z,18.30
2019-02-15T22:10:00.279Z,15.73
2019-02-15T22:12:31.038Z,19.37
2019-02-15T22:15:02.709Z,18.20
2019-02-15T22:17:33.473Z,19.10
2019-02-15T22:20:07.554Z,16.00
2019-02-15T22:22:38.329Z,18.60
2019-02-15T22:25:09.089Z,17.70
2019-02-15T22:27:39.846Z,17.40
2019-02-15T22:30:16.404Z,17.63
2019-02-15T22:32:47.181Z,18.48
2019-02-15T22:35:17.953Z,17.30
2019-02-15T22:37:48.710Z,17.77
2019-02-15T22:40:28.445Z,18.67
2019-02-15T22:43:14.524Z,17.50
2019-02-15T22:45:45.292Z,17.77
2019-02-15T22:48:16.070Z,17.90
2019-02-15T22:50:47.138Z,15.57
2019-02-15T22:53:17.905Z,16.55
2019-02-15T22:55:48.670Z,16.63
2019-02-15T22:58:19.422Z,15.97
2019-02-15T23:01:05.387Z,17.07
2019-02-15T23:03:36.129Z,17.23
2019-02-15T23:06:07.172Z,16.77
2019-02-15T23:08:37.932Z,16.97
2019-02-15T23:11:08.706Z,17.10
2019-02-15T23:13:39.457Z,17.20
2019-02-15T23:16:10.228Z,16.80
2019-02-15T23:18:40.982Z,16.87
2019-02-15T23:21:11.746Z,18.97
2019-02-15T23:23:42.511Z,16.40
2019-02-15T23:26:13.279Z,16.80
2019-02-15T23:28:44.037Z,16.17
2019-02-15T23:31:14.853Z,16.57
2019-02-15T23:33:45.607Z,17.33
2019-02-15T23:36:16.396Z,16.93
2019-02-15T23:38:47.151Z,18.10
2019-02-15T23:41:17.916Z,17.33
2019-02-15T23:43:48.679Z,16.17
2019-02-15T23:46:19.739Z,16.77
2019-02-15T23:48:50.510Z,17.17
2019-02-15T23:51:21.275Z,16.87
2019-02-15T23:53:52.049Z,16.10
2019-02-15T23:56:22.821Z,15.90
2019-02-15T23:58:53.574Z,17.07
